Hlavní strana
METAR-TAF:

METAR-TAF

Letiště :

Pápa, Maďarsko

zeměpisná šířka: 47-12N, zeměpisná délka: 017-30E, výška: 145 m

Aktuální stav počasí

Zpráva byla vytvořena před 25 minutami, v 17:15 UTC
Jihovýchodní vítr 2 kt
Teplota 0°C
Vlhkost vzduchu 74%
Tlak 1031 hPa
Viditelnost 10 km a více
Žádná oblačnost pod 1500 m, nevyskytují se cumulonimby.

METAR: LHPA 171715Z 13002KT CAVOK M00/M04 Q1031 NOSIG RMK BLU

Čas: 18:40 (17:40 UTC)

Předpověď počasí

Zpráva byla vytvořena před 25 minutami, v 17:15 UTC
Předpověď platná od 17 v 18 UTC do 18 v 18 UTC
vítr z různých směrů 3 kt
Viditelnost 10 km a více
Žádná oblačnost pod 1500 m, nevyskytují se cumulonimby.
Pravděpodobnost 30% :
Dočasný
od 18 v 03 UTC do 18 v 07 UTC
Viditelnost: 5000 m
kouřmo
Dočasný
od 18 v 10 UTC do 18 v 15 UTC
Severní vítr 5 kt

TAF: LHPA 171715Z 1718/1818 VRB03KT CAVOK PROB30 TEMPO 1803/1807 5000 BR MIBCFZFG NSC TEMPO 1810/1815 36005KT

Stav a předpovědi počasí z více než 4 000 letišť (zprávy METAR a TAF).

Červené a žluté tečky na mapě představují dostupné meteorologické stanice.

Když kurzor umístíte na tečku, zobrazí se název stanice.

Pak kliknutím zobrazíte stav a předpověď počasí.

Chcete-li změnit mapu, kliknutím na zelené tlačítko se znaménkem +mapu přiblížíte, kliknutím na zelené tlačítko se znaménkem – mapu oddálíte a kliknutím na zelené šipky přejdete na sousední mapy.


METAR-TAF: